sensor_id;sensor_type;location;lat;lon;timestamp;pressure;altitude;pressure_sealevel;temperature;humidity
56894;BME280;43392;50.078;13.704;2023-07-13T00:02:17;96670.38;;;24.11;58.95
56894;BME280;43392;50.078;13.704;2023-07-13T00:04:46;96674.66;;;24.08;59.21
56894;BME280;43392;50.078;13.704;2023-07-13T00:07:12;96681.31;;;24.07;59.52
56894;BME280;43392;50.078;13.704;2023-07-13T00:09:39;96692.59;;;24.06;59.28
56894;BME280;43392;50.078;13.704;2023-07-13T00:12:22;96680.41;;;24.03;59.67
56894;BME280;43392;50.078;13.704;2023-07-13T00:14:49;96677.63;;;24.00;59.75
56894;BME280;43392;50.078;13.704;2023-07-13T00:17:16;96667.41;;;23.97;60.38
56894;BME280;43392;50.078;13.704;2023-07-13T00:19:43;96658.72;;;23.91;60.22
56894;BME280;43392;50.078;13.704;2023-07-13T00:22:11;96656.34;;;23.90;60.59
56894;BME280;43392;50.078;13.704;2023-07-13T00:24:38;96666.88;;;23.88;61.07
56894;BME280;43392;50.078;13.704;2023-07-13T00:27:07;96659.81;;;23.87;60.91
56894;BME280;43392;50.078;13.704;2023-07-13T00:29:34;96658.59;;;23.84;61.56
56894;BME280;43392;50.078;13.704;2023-07-13T00:32:01;96669.56;;;23.84;60.98
56894;BME280;43392;50.078;13.704;2023-07-13T00:34:28;96658.97;;;23.83;61.80
56894;BME280;43392;50.078;13.704;2023-07-13T00:36:55;96649.19;;;23.82;61.88
56894;BME280;43392;50.078;13.704;2023-07-13T00:39:23;96643.69;;;23.82;61.58
56894;BME280;43392;50.078;13.704;2023-07-13T00:41:50;96637.00;;;23.79;61.80
56894;BME280;43392;50.078;13.704;2023-07-13T00:44:18;96630.31;;;23.76;62.40
56894;BME280;43392;50.078;13.704;2023-07-13T00:46:45;96636.56;;;23.73;62.35
56894;BME280;43392;50.078;13.704;2023-07-13T00:49:21;96636.78;;;23.65;63.06
56894;BME280;43392;50.078;13.704;2023-07-13T00:51:49;96650.44;;;23.61;63.77
56894;BME280;43392;50.078;13.704;2023-07-13T00:54:20;96660.38;;;23.47;63.79
56894;BME280;43392;50.078;13.704;2023-07-13T00:56:52;96663.31;;;23.38;64.52
56894;BME280;43392;50.078;13.704;2023-07-13T00:59:21;96672.25;;;23.35;64.41
56894;BME280;43392;50.078;13.704;2023-07-13T01:01:48;96670.16;;;23.29;64.41
56894;BME280;43392;50.078;13.704;2023-07-13T01:04:16;96683.22;;;23.16;64.44
56894;BME280;43392;50.078;13.704;2023-07-13T01:06:43;96683.03;;;23.05;64.78
56894;BME280;43392;50.078;13.704;2023-07-13T01:09:11;96675.13;;;23.00;65.34
56894;BME280;43392;50.078;13.704;2023-07-13T01:11:38;96665.50;;;22.87;65.91
56894;BME280;43392;50.078;13.704;2023-07-13T01:14:07;96670.31;;;22.75;65.83
56894;BME280;43392;50.078;13.704;2023-07-13T01:16:36;96654.66;;;22.72;66.33
56894;BME280;43392;50.078;13.704;2023-07-13T01:19:08;96641.88;;;22.79;66.79
56894;BME280;43392;50.078;13.704;2023-07-13T01:21:40;96636.94;;;22.85;66.43
56894;BME280;43392;50.078;13.704;2023-07-13T01:24:08;96624.06;;;22.85;66.61
56894;BME280;43392;50.078;13.704;2023-07-13T01:26:35;96633.19;;;22.93;67.02
56894;BME280;43392;50.078;13.704;2023-07-13T01:29:01;96633.31;;;23.00;67.10
56894;BME280;43392;50.078;13.704;2023-07-13T01:31:28;96637.66;;;22.82;68.05
56894;BME280;43392;50.078;13.704;2023-07-13T01:33:54;96640.09;;;22.68;68.37
56894;BME280;43392;50.078;13.704;2023-07-13T01:36:22;96633.53;;;22.53;69.16
56894;BME280;43392;50.078;13.704;2023-07-13T01:38:50;96631.03;;;22.44;69.34
56894;BME280;43392;50.078;13.704;2023-07-13T01:41:17;96640.38;;;22.43;69.79
56894;BME280;43392;50.078;13.704;2023-07-13T01:43:43;96641.03;;;22.37;69.62
56894;BME280;43392;50.078;13.704;2023-07-13T01:46:10;96647.13;;;22.30;69.98
56894;BME280;43392;50.078;13.704;2023-07-13T01:48:38;96654.44;;;22.26;70.20
56894;BME280;43392;50.078;13.704;2023-07-13T01:51:05;96673.78;;;22.18;70.46
56894;BME280;43392;50.078;13.704;2023-07-13T01:53:31;96680.94;;;22.07;71.28
56894;BME280;43392;50.078;13.704;2023-07-13T01:55:59;96668.63;;;21.97;71.42
56894;BME280;43392;50.078;13.704;2023-07-13T01:58:26;96664.16;;;21.89;71.80
56894;BME280;43392;50.078;13.704;2023-07-13T02:00:52;96657.81;;;21.85;72.02
56894;BME280;43392;50.078;13.704;2023-07-13T02:03:19;96671.69;;;21.80;72.52
56894;BME280;43392;50.078;13.704;2023-07-13T02:05:45;96674.44;;;21.80;72.62
56894;BME280;43392;50.078;13.704;2023-07-13T02:08:12;96686.06;;;21.77;72.78
56894;BME280;43392;50.078;13.704;2023-07-13T02:10:38;96670.13;;;21.79;72.55
56894;BME280;43392;50.078;13.704;2023-07-13T02:13:07;96663.44;;;21.92;71.44
56894;BME280;43392;50.078;13.704;2023-07-13T02:15:33;96663.31;;;22.04;71.24
56894;BME280;43392;50.078;13.704;2023-07-13T02:18:00;96669.03;;;22.15;71.26
56894;BME280;43392;50.078;13.704;2023-07-13T02:20:28;96667.25;;;22.22;71.25
56894;BME280;43392;50.078;13.704;2023-07-13T02:22:55;96656.81;;;22.09;71.81
56894;BME280;43392;50.078;13.704;2023-07-13T02:25:22;96675.16;;;21.93;70.98
56894;BME280;43392;50.078;13.704;2023-07-13T02:27:50;96674.63;;;21.71;69.55
56894;BME280;43392;50.078;13.704;2023-07-13T02:30:18;96685.09;;;21.54;67.82
56894;BME280;43392;50.078;13.704;2023-07-13T02:32:45;96687.91;;;21.42;67.60
56894;BME280;43392;50.078;13.704;2023-07-13T02:35:12;96704.78;;;21.32;67.14
56894;BME280;43392;50.078;13.704;2023-07-13T02:37:38;96704.44;;;21.17;66.41
56894;BME280;43392;50.078;13.704;2023-07-13T02:40:07;96705.63;;;21.04;65.96
56894;BME280;43392;50.078;13.704;2023-07-13T02:42:34;96696.69;;;20.92;65.82
56894;BME280;43392;50.078;13.704;2023-07-13T02:45:00;96703.09;;;20.84;65.00
56894;BME280;43392;50.078;13.704;2023-07-13T02:47:28;96710.72;;;20.78;64.15
56894;BME280;43392;50.078;13.704;2023-07-13T02:49:55;96711.75;;;20.74;63.64
56894;BME280;43392;50.078;13.704;2023-07-13T02:52:22;96704.38;;;20.74;63.24
56894;BME280;43392;50.078;13.704;2023-07-13T02:54:48;96702.81;;;20.73;62.90
56894;BME280;43392;50.078;13.704;2023-07-13T02:57:15;96715.19;;;20.71;62.64
56894;BME280;43392;50.078;13.704;2023-07-13T02:59:44;96705.56;;;20.61;62.47
56894;BME280;43392;50.078;13.704;2023-07-13T03:02:11;96709.66;;;20.55;62.38
56894;BME280;43392;50.078;13.704;2023-07-13T03:04:39;96699.00;;;20.50;62.14
56894;BME280;43392;50.078;13.704;2023-07-13T03:07:06;96705.50;;;20.45;61.89
56894;BME280;43392;50.078;13.704;2023-07-13T03:09:34;96688.59;;;20.40;61.94
56894;BME280;43392;50.078;13.704;2023-07-13T03:12:01;96691.47;;;20.31;61.85
56894;BME280;43392;50.078;13.704;2023-07-13T03:14:28;96690.91;;;20.26;61.91
56894;BME280;43392;50.078;13.704;2023-07-13T03:16:55;96694.19;;;20.19;62.02
56894;BME280;43392;50.078;13.704;2023-07-13T03:19:22;96692.03;;;20.13;62.07
56894;BME280;43392;50.078;13.704;2023-07-13T03:21:50;96701.22;;;20.08;61.97
56894;BME280;43392;50.078;13.704;2023-07-13T03:24:16;96701.34;;;20.00;62.05
56894;BME280;43392;50.078;13.704;2023-07-13T03:26:43;96708.16;;;19.94;62.24
56894;BME280;43392;50.078;13.704;2023-07-13T03:29:10;96709.53;;;19.88;62.21
56894;BME280;43392;50.078;13.704;2023-07-13T03:31:36;96715.31;;;19.86;62.43
56894;BME280;43392;50.078;13.704;2023-07-13T03:34:03;96725.72;;;19.84;62.37
56894;BME280;43392;50.078;13.704;2023-07-13T03:36:31;96712.34;;;19.79;62.01
56894;BME280;43392;50.078;13.704;2023-07-13T03:39:02;96722.69;;;19.85;61.96
56894;BME280;43392;50.078;13.704;2023-07-13T03:41:29;96732.53;;;19.90;61.69
56894;BME280;43392;50.078;13.704;2023-07-13T03:43:56;96733.34;;;19.91;61.40
56894;BME280;43392;50.078;13.704;2023-07-13T03:46:23;96731.75;;;19.90;61.41
56894;BME280;43392;50.078;13.704;2023-07-13T03:48:50;96729.59;;;19.95;60.88
56894;BME280;43392;50.078;13.704;2023-07-13T03:51:17;96737.84;;;19.99;60.69
56894;BME280;43392;50.078;13.704;2023-07-13T03:53:46;96732.88;;;20.01;60.73
56894;BME280;43392;50.078;13.704;2023-07-13T03:56:16;96740.47;;;20.07;60.57
56894;BME280;43392;50.078;13.704;2023-07-13T03:58:44;96740.56;;;20.11;60.35
56894;BME280;43392;50.078;13.704;2023-07-13T04:01:12;96749.22;;;20.13;60.16
56894;BME280;43392;50.078;13.704;2023-07-13T04:03:39;96743.50;;;20.18;60.40
56894;BME280;43392;50.078;13.704;2023-07-13T04:06:08;96750.81;;;20.26;59.98
56894;BME280;43392;50.078;13.704;2023-07-13T04:08:41;96744.91;;;20.24;59.82
56894;BME280;43392;50.078;13.704;2023-07-13T04:11:07;96757.41;;;20.25;59.61
56894;BME280;43392;50.078;13.704;2023-07-13T04:13:35;96763.81;;;20.20;59.55
56894;BME280;43392;50.078;13.704;2023-07-13T04:16:02;96770.28;;;20.16;59.89
56894;BME280;43392;50.078;13.704;2023-07-13T04:18:29;96766.69;;;20.12;60.14
56894;BME280;43392;50.078;13.704;2023-07-13T04:20:55;96767.56;;;20.16;60.39
56894;BME280;43392;50.078;13.704;2023-07-13T04:23:22;96773.16;;;20.07;60.45
56894;BME280;43392;50.078;13.704;2023-07-13T04:25:51;96786.63;;;20.04;60.51
56894;BME280;43392;50.078;13.704;2023-07-13T04:28:19;96784.59;;;20.01;60.96
56894;BME280;43392;50.078;13.704;2023-07-13T04:30:47;96784.25;;;20.02;61.18
56894;BME280;43392;50.078;13.704;2023-07-13T04:33:14;96774.03;;;19.99;61.25
56894;BME280;43392;50.078;13.704;2023-07-13T04:35:42;96785.81;;;20.03;61.35
56894;BME280;43392;50.078;13.704;2023-07-13T04:38:08;96780.38;;;20.03;61.25
56894;BME280;43392;50.078;13.704;2023-07-13T04:40:36;96780.97;;;20.09;61.14
56894;BME280;43392;50.078;13.704;2023-07-13T04:43:03;96779.72;;;20.06;61.22
56894;BME280;43392;50.078;13.704;2023-07-13T04:45:30;96784.94;;;19.99;61.47
56894;BME280;43392;50.078;13.704;2023-07-13T04:47:58;96796.97;;;19.98;61.84
56894;BME280;43392;50.078;13.704;2023-07-13T04:50:25;96792.19;;;19.95;61.96
56894;BME280;43392;50.078;13.704;2023-07-13T04:52:52;96795.25;;;19.94;62.05
56894;BME280;43392;50.078;13.704;2023-07-13T04:55:19;96795.59;;;19.92;62.11
56894;BME280;43392;50.078;13.704;2023-07-13T04:57:46;96798.88;;;19.98;61.76
56894;BME280;43392;50.078;13.704;2023-07-13T05:00:14;96798.09;;;19.97;62.06
56894;BME280;43392;50.078;13.704;2023-07-13T05:02:44;96803.31;;;20.02;62.49
56894;BME280;43392;50.078;13.704;2023-07-13T05:05:12;96807.72;;;20.19;62.29
56894;BME280;43392;50.078;13.704;2023-07-13T05:07:39;96821.16;;;20.36;61.75
56894;BME280;43392;50.078;13.704;2023-07-13T05:10:07;96822.97;;;20.44;61.40
56894;BME280;43392;50.078;13.704;2023-07-13T05:12:34;96817.75;;;20.39;61.04
56894;BME280;43392;50.078;13.704;2023-07-13T05:15:01;96811.97;;;20.40;61.00
56894;BME280;43392;50.078;13.704;2023-07-13T05:17:28;96814.81;;;20.44;61.02
56894;BME280;43392;50.078;13.704;2023-07-13T05:19:54;96820.94;;;20.41;61.21
56894;BME280;43392;50.078;13.704;2023-07-13T05:22:22;96816.06;;;20.46;61.13
56894;BME280;43392;50.078;13.704;2023-07-13T05:24:49;96822.41;;;20.50;60.75
56894;BME280;43392;50.078;13.704;2023-07-13T05:27:16;96824.31;;;20.50;61.32
56894;BME280;43392;50.078;13.704;2023-07-13T05:29:42;96826.38;;;20.53;60.95
56894;BME280;43392;50.078;13.704;2023-07-13T05:32:09;96817.59;;;20.60;60.59
56894;BME280;43392;50.078;13.704;2023-07-13T05:34:36;96818.16;;;20.65;60.10
56894;BME280;43392;50.078;13.704;2023-07-13T05:37:03;96814.19;;;20.75;59.56
56894;BME280;43392;50.078;13.704;2023-07-13T05:39:31;96820.19;;;20.80;59.06
56894;BME280;43392;50.078;13.704;2023-07-13T05:41:58;96830.63;;;20.78;59.18
56894;BME280;43392;50.078;13.704;2023-07-13T05:44:25;96829.25;;;20.84;58.86
56894;BME280;43392;50.078;13.704;2023-07-13T05:46:51;96828.34;;;20.92;58.70
56894;BME280;43392;50.078;13.704;2023-07-13T05:49:18;96822.28;;;20.99;58.55
56894;BME280;43392;50.078;13.704;2023-07-13T05:51:45;96827.50;;;21.04;58.20
56894;BME280;43392;50.078;13.704;2023-07-13T05:54:11;96825.38;;;20.97;58.36
56894;BME280;43392;50.078;13.704;2023-07-13T05:56:39;96828.44;;;20.96;58.34
56894;BME280;43392;50.078;13.704;2023-07-13T05:59:06;96830.72;;;20.94;58.39
56894;BME280;43392;50.078;13.704;2023-07-13T06:01:33;96834.25;;;20.94;58.33
56894;BME280;43392;50.078;13.704;2023-07-13T06:04:00;96841.50;;;20.90;58.67
56894;BME280;43392;50.078;13.704;2023-07-13T06:06:27;96821.19;;;20.88;58.80
56894;BME280;43392;50.078;13.704;2023-07-13T06:08:53;96843.09;;;20.91;59.35
56894;BME280;43392;50.078;13.704;2023-07-13T06:11:22;96842.09;;;20.84;59.36
56894;BME280;43392;50.078;13.704;2023-07-13T06:13:50;96846.94;;;20.90;59.33
56894;BME280;43392;50.078;13.704;2023-07-13T06:16:17;96844.34;;;20.94;59.33
56894;BME280;43392;50.078;13.704;2023-07-13T06:18:44;96858.09;;;20.97;59.11
56894;BME280;43392;50.078;13.704;2023-07-13T06:21:12;96848.44;;;21.00;59.15
56894;BME280;43392;50.078;13.704;2023-07-13T06:23:39;96852.84;;;21.04;59.61
56894;BME280;43392;50.078;13.704;2023-07-13T06:26:06;96851.00;;;21.21;59.22
56894;BME280;43392;50.078;13.704;2023-07-13T06:28:34;96858.00;;;21.34;58.77
56894;BME280;43392;50.078;13.704;2023-07-13T06:31:05;96860.13;;;21.40;58.51
56894;BME280;43392;50.078;13.704;2023-07-13T06:33:31;96849.53;;;21.51;58.57
56894;BME280;43392;50.078;13.704;2023-07-13T06:35:58;96857.09;;;21.57;58.20
56894;BME280;43392;50.078;13.704;2023-07-13T06:38:25;96862.22;;;21.59;57.60
56894;BME280;43392;50.078;13.704;2023-07-13T06:40:51;96858.78;;;21.62;57.20
56894;BME280;43392;50.078;13.704;2023-07-13T06:43:18;96853.09;;;21.67;57.75
56894;BME280;43392;50.078;13.704;2023-07-13T06:45:46;96859.16;;;21.76;57.40
56894;BME280;43392;50.078;13.704;2023-07-13T06:48:17;96858.22;;;21.84;57.77
56894;BME280;43392;50.078;13.704;2023-07-13T06:50:44;96866.69;;;21.95;57.24
56894;BME280;43392;50.078;13.704;2023-07-13T06:53:12;96864.94;;;22.02;56.85
56894;BME280;43392;50.078;13.704;2023-07-13T06:55:39;96864.25;;;22.05;56.68
56894;BME280;43392;50.078;13.704;2023-07-13T06:58:06;96867.69;;;22.02;56.54
56894;BME280;43392;50.078;13.704;2023-07-13T07:00:33;96875.53;;;22.04;56.17
56894;BME280;43392;50.078;13.704;2023-07-13T07:02:59;96878.03;;;22.09;55.88
56894;BME280;43392;50.078;13.704;2023-07-13T07:05:27;96870.00;;;22.16;55.71
56894;BME280;43392;50.078;13.704;2023-07-13T07:07:55;96876.34;;;22.20;55.16
56894;BME280;43392;50.078;13.704;2023-07-13T07:10:22;96872.53;;;22.24;55.84
56894;BME280;43392;50.078;13.704;2023-07-13T07:12:48;96874.16;;;22.25;55.57
56894;BME280;43392;50.078;13.704;2023-07-13T07:15:16;96887.28;;;22.35;55.43
56894;BME280;43392;50.078;13.704;2023-07-13T07:17:43;96880.38;;;22.41;55.40
56894;BME280;43392;50.078;13.704;2023-07-13T07:20:10;96871.41;;;22.41;54.92
56894;BME280;43392;50.078;13.704;2023-07-13T07:22:39;96873.88;;;22.46;55.04
56894;BME280;43392;50.078;13.704;2023-07-13T07:25:05;96879.06;;;22.51;54.82
56894;BME280;43392;50.078;13.704;2023-07-13T07:27:32;96888.94;;;22.56;54.73
56894;BME280;43392;50.078;13.704;2023-07-13T07:29:59;96890.53;;;22.57;54.45
56894;BME280;43392;50.078;13.704;2023-07-13T07:32:26;96885.50;;;22.59;53.85
56894;BME280;43392;50.078;13.704;2023-07-13T07:34:53;96882.97;;;22.66;54.28
56894;BME280;43392;50.078;13.704;2023-07-13T07:37:19;96885.41;;;22.71;53.61
56894;BME280;43392;50.078;13.704;2023-07-13T07:39:47;96880.81;;;22.75;53.25
56894;BME280;43392;50.078;13.704;2023-07-13T07:42:14;96881.78;;;22.82;53.35
56894;BME280;43392;50.078;13.704;2023-07-13T07:44:41;96882.72;;;22.90;53.18
56894;BME280;43392;50.078;13.704;2023-07-13T07:47:08;96888.31;;;22.93;52.95
56894;BME280;43392;50.078;13.704;2023-07-13T07:49:35;96883.78;;;23.01;53.67
56894;BME280;43392;50.078;13.704;2023-07-13T07:52:02;96885.94;;;23.11;53.71
56894;BME280;43392;50.078;13.704;2023-07-13T07:54:28;96876.03;;;23.22;52.61
56894;BME280;43392;50.078;13.704;2023-07-13T07:56:56;96884.03;;;23.31;51.85
56894;BME280;43392;50.078;13.704;2023-07-13T07:59:23;96880.69;;;23.37;52.33
56894;BME280;43392;50.078;13.704;2023-07-13T08:01:50;96884.00;;;23.46;52.51
56894;BME280;43392;50.078;13.704;2023-07-13T08:04:16;96879.50;;;23.57;52.06
56894;BME280;43392;50.078;13.704;2023-07-13T08:06:43;96870.22;;;23.62;51.77
56894;BME280;43392;50.078;13.704;2023-07-13T08:09:10;96880.53;;;23.68;51.78
56894;BME280;43392;50.078;13.704;2023-07-13T08:11:36;96880.53;;;23.68;51.10
56894;BME280;43392;50.078;13.704;2023-07-13T08:14:04;96891.25;;;23.58;50.99
56894;BME280;43392;50.078;13.704;2023-07-13T08:16:31;96886.34;;;23.48;51.72
56894;BME280;43392;50.078;13.704;2023-07-13T08:18:59;96883.44;;;23.37;51.31
56894;BME280;43392;50.078;13.704;2023-07-13T08:21:25;96879.34;;;23.31;51.34
56894;BME280;43392;50.078;13.704;2023-07-13T08:23:52;96887.84;;;23.26;51.30
56894;BME280;43392;50.078;13.704;2023-07-13T08:26:19;96892.88;;;23.24;51.94
56894;BME280;43392;50.078;13.704;2023-07-13T08:28:45;96893.31;;;23.26;51.68
56894;BME280;43392;50.078;13.704;2023-07-13T08:31:13;96896.75;;;23.23;50.70
56894;BME280;43392;50.078;13.704;2023-07-13T08:33:40;96902.22;;;23.23;50.80
56894;BME280;43392;50.078;13.704;2023-07-13T08:36:07;96901.09;;;23.24;50.55
56894;BME280;43392;50.078;13.704;2023-07-13T08:38:34;96903.03;;;23.24;50.73
56894;BME280;43392;50.078;13.704;2023-07-13T08:41:09;96896.13;;;23.30;50.92
56894;BME280;43392;50.078;13.704;2023-07-13T08:43:38;96895.84;;;23.35;50.86
56894;BME280;43392;50.078;13.704;2023-07-13T08:46:08;96902.44;;;23.49;50.29
56894;BME280;43392;50.078;13.704;2023-07-13T08:48:41;96894.44;;;23.60;49.65
56894;BME280;43392;50.078;13.704;2023-07-13T08:51:16;96902.50;;;23.72;48.82
56894;BME280;43392;50.078;13.704;2023-07-13T08:53:48;96893.28;;;23.80;48.17
56894;BME280;43392;50.078;13.704;2023-07-13T08:56:17;96904.13;;;23.96;49.16
56894;BME280;43392;50.078;13.704;2023-07-13T08:58:48;96900.22;;;24.16;48.61
56894;BME280;43392;50.078;13.704;2023-07-13T09:01:20;96909.28;;;24.20;48.07
56894;BME280;43392;50.078;13.704;2023-07-13T09:03:56;96911.13;;;24.12;47.02
56894;BME280;43392;50.078;13.704;2023-07-13T09:06:33;96917.97;;;24.03;47.74
56894;BME280;43392;50.078;13.704;2023-07-13T09:09:02;96912.78;;;24.17;47.66
56894;BME280;43392;50.078;13.704;2023-07-13T09:11:42;96922.22;;;24.42;48.00
56894;BME280;43392;50.078;13.704;2023-07-13T09:14:34;96931.13;;;24.58;46.93
56894;BME280;43392;50.078;13.704;2023-07-13T09:17:10;96936.47;;;24.74;47.16
56894;BME280;43392;50.078;13.704;2023-07-13T09:19:40;96933.72;;;24.74;47.44
56894;BME280;43392;50.078;13.704;2023-07-13T09:22:14;96932.28;;;24.80;46.75
56894;BME280;43392;50.078;13.704;2023-07-13T09:24:53;96932.34;;;24.83;46.94
56894;BME280;43392;50.078;13.704;2023-07-13T09:27:24;96933.06;;;24.80;46.17
56894;BME280;43392;50.078;13.704;2023-07-13T09:30:01;96930.88;;;24.67;45.65
56894;BME280;43392;50.078;13.704;2023-07-13T09:32:31;96940.06;;;24.55;45.37
56894;BME280;43392;50.078;13.704;2023-07-13T09:35:00;96934.91;;;24.50;45.26
56894;BME280;43392;50.078;13.704;2023-07-13T09:37:30;96942.41;;;24.53;45.43
56894;BME280;43392;50.078;13.704;2023-07-13T09:39:59;96937.34;;;24.55;45.18
56894;BME280;43392;50.078;13.704;2023-07-13T09:42:30;96927.63;;;24.61;45.12
56894;BME280;43392;50.078;13.704;2023-07-13T09:45:00;96925.75;;;24.65;44.32
56894;BME280;43392;50.078;13.704;2023-07-13T09:47:30;96929.72;;;24.68;44.04
56894;BME280;43392;50.078;13.704;2023-07-13T09:50:00;96914.47;;;24.70;44.02
56894;BME280;43392;50.078;13.704;2023-07-13T09:52:29;96925.59;;;24.77;43.72
56894;BME280;43392;50.078;13.704;2023-07-13T09:55:23;96929.25;;;24.85;43.29
56894;BME280;43392;50.078;13.704;2023-07-13T09:57:50;96933.72;;;24.96;43.80
56894;BME280;43392;50.078;13.704;2023-07-13T10:00:22;96939.31;;;25.03;42.97
56894;BME280;43392;50.078;13.704;2023-07-13T10:02:58;96934.06;;;24.95;42.99
56894;BME280;43392;50.078;13.704;2023-07-13T10:05:27;96927.34;;;24.89;42.29
56894;BME280;43392;50.078;13.704;2023-07-13T10:07:55;96933.31;;;24.94;43.15
56894;BME280;43392;50.078;13.704;2023-07-13T10:10:23;96928.44;;;25.11;43.69
56894;BME280;43392;50.078;13.704;2023-07-13T10:12:50;96929.53;;;25.32;42.47
56894;BME280;43392;50.078;13.704;2023-07-13T10:15:19;96935.09;;;25.36;42.46
56894;BME280;43392;50.078;13.704;2023-07-13T10:17:47;96932.66;;;25.31;42.60
56894;BME280;43392;50.078;13.704;2023-07-13T10:20:14;96937.34;;;25.30;42.29
56894;BME280;43392;50.078;13.704;2023-07-13T10:22:45;96936.56;;;25.30;41.72
56894;BME280;43392;50.078;13.704;2023-07-13T10:25:18;96932.50;;;25.20;41.84
56894;BME280;43392;50.078;13.704;2023-07-13T10:27:46;96936.03;;;25.21;41.90
56894;BME280;43392;50.078;13.704;2023-07-13T10:30:19;96932.56;;;25.24;41.29
56894;BME280;43392;50.078;13.704;2023-07-13T10:32:48;96942.16;;;25.37;41.10
56894;BME280;43392;50.078;13.704;2023-07-13T10:35:19;96927.31;;;25.41;41.05
56894;BME280;43392;50.078;13.704;2023-07-13T10:37:49;96930.44;;;25.40;40.70
56894;BME280;43392;50.078;13.704;2023-07-13T10:40:20;96936.09;;;25.50;40.18
56894;BME280;43392;50.078;13.704;2023-07-13T10:42:51;96938.88;;;25.54;39.66
56894;BME280;43392;50.078;13.704;2023-07-13T10:45:21;96931.75;;;25.49;39.95
56894;BME280;43392;50.078;13.704;2023-07-13T10:47:49;96925.47;;;25.49;39.88
56894;BME280;43392;50.078;13.704;2023-07-13T10:50:20;96921.78;;;25.38;39.80
56894;BME280;43392;50.078;13.704;2023-07-13T10:52:49;96929.44;;;25.25;40.03
56894;BME280;43392;50.078;13.704;2023-07-13T10:55:37;96924.84;;;25.33;38.38
56894;BME280;43392;50.078;13.704;2023-07-13T10:58:14;96924.19;;;25.43;38.68
56894;BME280;43392;50.078;13.704;2023-07-13T11:00:47;96927.09;;;25.53;39.46
56894;BME280;43392;50.078;13.704;2023-07-13T11:03:17;96928.84;;;25.65;37.64
56894;BME280;43392;50.078;13.704;2023-07-13T11:05:48;96918.69;;;25.69;37.76
56894;BME280;43392;50.078;13.704;2023-07-13T11:08:20;96912.47;;;25.76;36.70
56894;BME280;43392;50.078;13.704;2023-07-13T11:10:52;96914.50;;;25.82;36.26
56894;BME280;43392;50.078;13.704;2023-07-13T11:13:56;96915.44;;;25.93;36.67
56894;BME280;43392;50.078;13.704;2023-07-13T11:16:42;96917.16;;;26.08;35.74
56894;BME280;43392;50.078;13.704;2023-07-13T11:19:28;96917.94;;;26.09;35.69
56894;BME280;43392;50.078;13.704;2023-07-13T11:22:15;96906.63;;;26.14;35.35
56894;BME280;43392;50.078;13.704;2023-07-13T11:24:57;96891.84;;;26.25;35.68
56894;BME280;43392;50.078;13.704;2023-07-13T11:27:43;96894.50;;;26.15;35.01
56894;BME280;43392;50.078;13.704;2023-07-13T11:30:36;96906.00;;;25.94;34.03
56894;BME280;43392;50.078;13.704;2023-07-13T11:33:17;96892.88;;;25.77;34.50
56894;BME280;43392;50.078;13.704;2023-07-13T11:35:58;96880.72;;;25.78;34.69
56894;BME280;43392;50.078;13.704;2023-07-13T11:38:32;96881.13;;;25.80;34.90
56894;BME280;43392;50.078;13.704;2023-07-13T11:41:04;96885.84;;;25.80;34.35
56894;BME280;43392;50.078;13.704;2023-07-13T11:43:31;96885.72;;;25.69;34.67
56894;BME280;43392;50.078;13.704;2023-07-13T11:46:12;96884.50;;;25.66;34.56
56894;BME280;43392;50.078;13.704;2023-07-13T11:48:38;96886.03;;;25.64;35.21
56894;BME280;43392;50.078;13.704;2023-07-13T11:51:05;96885.31;;;25.67;34.25
56894;BME280;43392;50.078;13.704;2023-07-13T11:53:38;96893.63;;;25.74;35.64
56894;BME280;43392;50.078;13.704;2023-07-13T11:56:07;96895.44;;;25.63;36.29
56894;BME280;43392;50.078;13.704;2023-07-13T11:58:34;96903.88;;;25.47;37.19
56894;BME280;43392;50.078;13.704;2023-07-13T12:01:02;96910.19;;;25.48;37.00
56894;BME280;43392;50.078;13.704;2023-07-13T12:03:32;96902.13;;;25.62;37.17
56894;BME280;43392;50.078;13.704;2023-07-13T12:06:02;96898.19;;;25.63;36.79
56894;BME280;43392;50.078;13.704;2023-07-13T12:08:31;96909.63;;;25.65;36.53
56894;BME280;43392;50.078;13.704;2023-07-13T12:11:04;96906.06;;;25.64;35.84
56894;BME280;43392;50.078;13.704;2023-07-13T12:13:37;96912.34;;;25.65;36.51
56894;BME280;43392;50.078;13.704;2023-07-13T12:16:12;96908.75;;;25.61;36.37
56894;BME280;43392;50.078;13.704;2023-07-13T12:18:42;96904.44;;;25.60;36.74
56894;BME280;43392;50.078;13.704;2023-07-13T12:21:13;96914.34;;;25.68;36.46
56894;BME280;43392;50.078;13.704;2023-07-13T12:23:43;96916.47;;;25.82;37.01
56894;BME280;43392;50.078;13.704;2023-07-13T12:26:11;96912.19;;;25.84;36.40
56894;BME280;43392;50.078;13.704;2023-07-13T12:28:46;96921.34;;;25.95;37.10
56894;BME280;43392;50.078;13.704;2023-07-13T12:31:24;96921.97;;;25.82;37.06
56894;BME280;43392;50.078;13.704;2023-07-13T12:33:56;96919.91;;;25.75;37.38
56894;BME280;43392;50.078;13.704;2023-07-13T12:36:23;96916.06;;;25.80;37.58
56894;BME280;43392;50.078;13.704;2023-07-13T12:38:50;96914.56;;;25.86;37.35
56894;BME280;43392;50.078;13.704;2023-07-13T12:41:17;96903.25;;;25.94;37.20
56894;BME280;43392;50.078;13.704;2023-07-13T12:43:45;96908.47;;;26.03;37.40
56894;BME280;43392;50.078;13.704;2023-07-13T12:46:18;96916.72;;;26.06;36.63
56894;BME280;43392;50.078;13.704;2023-07-13T12:48:49;96922.66;;;26.08;35.13
56894;BME280;43392;50.078;13.704;2023-07-13T12:51:21;96915.56;;;26.04;35.80
56894;BME280;43392;50.078;13.704;2023-07-13T12:53:56;96915.13;;;26.02;36.04
56894;BME280;43392;50.078;13.704;2023-07-13T12:56:25;96914.13;;;26.13;35.93
56894;BME280;43392;50.078;13.704;2023-07-13T12:58:58;96924.41;;;26.23;35.53
56894;BME280;43392;50.078;13.704;2023-07-13T13:01:27;96914.59;;;26.26;35.09